Mandeville, LA (70471)

4:23 PM CDT on July 01, 2015 (GMT -0500)
Deval Estates | | Change Station
CLOSE
Current Station
Personal Weather Station
Location: Mandeville, LA
Elevation: 25 ft
Nearby Weather Stations

Elev 25 ft 30.40 °N, 90.04 °W | Updated 14 seconds ago

Overcast
Overcast
74.7 °F
Feels Like 72 °F
N
0.0
Wind Variable Wind from West
Gusts 0.0 mph

Today
High -- | Low -- °F
--% Chance of Precip.
Yesterday
High -- | Low -- °F
Precip. -- in
6:01 AM 8:06 PM
Full, 100% visible
Pressure 30.09 in
Visibility 10.0 miles
Clouds Few 4600 ft
Mostly Cloudy 11000 ft
Heat Index 72 °F
Dew Point 74 °F
Humidity 99%
Rainfall 0.33 in
Snow Depth Not available.
UV 5 out of 12
Pollen 3.10 out of 12
Air Quality Not available.
Flu Activity Not available.
METAR KASD 012053Z AUTO VRB03KT 10SM -RA FEW046 BKN110 25/22 A3009 RMK AO2 PK WND 19028/2004 LTG DSNT NE AND E RAB30 TSE15 SLP187 P0000 60000 T02500217 55005

More Conditions Fewer Conditions

Pressure 30.09 in
Visibility 10.0 miles
Clouds Few 4600 ft
Mostly Cloudy 11000 ft
Heat Index 72 °F
Dew Point 74 °F
Humidity 99%
Rainfall 0.33 in
Snow Depth Not available.
UV 5 out of 12
Pollen 3.10 out of 12
Air Quality Not available.
Flu Activity Not available.
METAR KASD 012053Z AUTO VRB03KT 10SM -RA FEW046 BKN110 25/22 A3009 RMK AO2 PK WND 19028/2004 LTG DSNT NE AND E RAB30 TSE15 SLP187 P0000 60000 T02500217 55005

More Conditions Fewer Conditions

10-Day Weather Forecast

×

Almanac

Astronomy

Jul. 01, 2015 Rise Set
Actual Time
Civil Twilight
Nautical Twilight
Astronomical Twilight
Moon
Length of Visible Light
Length of Day
Tomorrow will be .
, % of the Moon is Illuminated

Today's Extremes

State Highs State Lows

Community

WunderPhotos

Upload Photos

1,834,287 photos uploaded!

WunderBlogs® & News

Nearby

Air Quality

  Air Quality AQ Index Pollutant
Not available.

Snow Depth

Station Depth Elevation

Earthquake Activity

City Distance Mag. Time & Date
Minimum magnitude displayed is 2.5.

Coastal Water Temperatures

Place Temperature

Stations

Nearby Weather Stations

Station Location Temp. Windchill Dew Point Humidity Wind Precip. Elev Updated Type